Terminal Aerodrome Forecast
Issued by NWS

Home | Current Version | Previous Version | Graphics & Text | Print | Product List | Glossary On
Versions: 1 2 3 4 5 6 7 8 9 10 11 12 13 14 15 16 17 18 19 20 21 22 23 24
000
FTUS43 KABR 211134
TAFMBG
TAF
KMBG 211134Z 2112/2212 30005KT 3SM BR OVC005
      TEMPO 2112/2115 2SM BR
     FM211700 30005KT P6SM OVC008
     FM212200 31007KT P6SM OVC015
     FM220600 31007KT P6SM BKN008=

USA.gov is the U.S. government's official web portal to all federal, state and local government web resources and services.